San Francisco, CA (94105)

11:58 AM PDT on September 01, 2014 (GMT -0700)
SOMA | Change Station
CLOSE
Current Station
Personal Weather Station
Location: San Francisco, CA
Elevation: 20 ft
Nearby Weather Stations

Elev 20 ft 37.78 °N, 122.41 °W | Updated 13 minutes ago

Clear
Clear
79.5 °F
Feels Like 81 °F
N
2.0
Wind Variable Wind from WSW
Gusts 9.0 mph

Today
High -- | Low -- °F
--% Chance of Precip.
Yesterday
High -- | Low -- °F
Precip. -- in
6:39 AM 7:38 PM
Waxing Crescent, 43% visible
Pressure 29.85 in
Visibility 10.0 miles
Clouds Clear
Heat Index 81 °F
Dew Point 62 °F
Humidity 55%
Rainfall 0.00 in
Snow Depth Not available.
UV 5.7 out of 12
Pollen 8.40 out of 12
PM2.5 Good
Flu Activity Not available.
METAR KOAK 011853Z 24004KT 10SM CLR 23/14 A2985 RMK AO2 SLP106 T02330139

More Conditions Fewer Conditions

Pressure 29.85 in
Visibility 10.0 miles
Clouds Clear
Heat Index 81 °F
Dew Point 62 °F
Humidity 55%
Rainfall 0.00 in
Snow Depth Not available.
UV 5.7 out of 12
Pollen 8.40 out of 12
PM2.5 Good
Flu Activity Not available.
METAR KOAK 011853Z 24004KT 10SM CLR 23/14 A2985 RMK AO2 SLP106 T02330139

More Conditions Fewer Conditions

10-Day Weather Forecast

Almanac

Astronomy

Sep. 01, 2014 Rise Set
Actual Time 6:39 AM PDT 7:38 PM PDT
Civil Twilight 6:12 AM PDT 8:05 PM PDT
Nautical Twilight 5:40 AM PDT 8:37 PM PDT
Astronomical Twilight 5:07 AM PDT 9:10 PM PDT
Moon 1:23 PM PDT 11:51 PM PDT
Length of Visible Light 13h 52m
Length of Day
12h 58m
Tomorrow will be 2m 20s shorter.
Waxing Crescent, 43% of the Moon is Illuminated
Today
Waxing Crescent
Sep 2
First Quarter
Sep 8
Full
Sep 15
Last Quarter
Sep 24
New

Today's Extremes

State Highs State Lows

Community

WunderPhotos

Upload Photos

1,749,359 photos uploaded!

Nearby

Air Quality

  Air Quality AQ Index Pollutant
Yesterday Good
PM2.5
Yesterday Good
OZONE
Current Good
PM2.5
Monday Good
PM2.5
Tuesday Good
PM2.5
Wednesday Good
PM2.5
Thursday Good
PM2.5
Friday Good
PM2.5

Snow Depth

Station Depth Elevation
Blue Lakes 0 in 8000 ft
Forestdale Creek 0 in 8029 ft
Rubicon #2 0 in 7500 ft
Leavitt Meadows 0 in 7200 ft
Adin Mountain 1 in 6200 ft

Earthquake Activity

City Distance Mag. Time & Date
Gilroy, California 75 miles 3.5 9:10 AM PDT
2014-09-01
Green Valley, California 34 miles 2.5 6:37 AM PDT
2014-08-31
Napa, California 30 miles 3.2 1:56 AM PDT
2014-08-31
Gonzales, California 101 miles 2.7 9:48 PM PDT
2014-08-30
Minimum magnitude displayed is 2.5.

Coastal Water Temperatures

Place Temperature
San Francisco, CA 66.0 °F
Richmond, CA 66.9 °F
Port Chicago, CA 70.0 °F

Nearby Weather Stations